Witte Raaf — PG5626 — position and weather

sailwx.info

Track history (hours):
 
Tides and Currents Weather Stations Pressure Air Temp Water Temp Dewpoint Dewpoint Depression Visibility Wind Speed Wind Dir Waves Ship Positions

Witte Raaf

Last reported at 2014-Nov-14 18:33 UTC. Time now 2014-Nov-29 09:32 UTC.
Position N 32°44' W 117°12'.
Warning: this ship's position is 14 days out of date.

Length 14 m.

Type: Pleasure craft. MMSI: 244383027.

Date/timePositionNaut miles runAvg speedWind from/ knotsBaromVisibWave heightAir tempDewpointWater temp
2014-Nov-14 18:33N 32°44' W 117°12'1 0.1
2014-Nov-14 06:33N 32°44' W 117°11'0 0.0
2014-Nov-14 05:30N 32°44' W 117°11'0 0.0
2014-Nov-14 04:33N 32°44' W 117°11'0 0.0
2014-Nov-14 03:30N 32°44' W 117°11'0 0.0
2014-Nov-14 02:33N 32°44' W 117°11'0 0.0
2014-Nov-14 01:33N 32°44' W 117°11'0 0.0
2014-Nov-14 00:33N 32°44' W 117°11'0 0.0
2014-Nov-13 23:33N 32°44' W 117°11'0 0.1
2014-Nov-13 22:33N 32°44' W 117°11'0 0.0
2014-Nov-13 21:27N 32°44' W 117°11'3 3.2
2014-Nov-13 20:33N 32°41' W 117°09'1 0.0
2014-Nov-12 18:30N 32°41' W 117°10'0 0.0
2014-Nov-12 17:33N 32°41' W 117°10'0 0.0
2014-Nov-12 00:30N 32°41' W 117°10'3 1.0
2014-Nov-11 21:33N 32°44' W 117°11'3 2.7
2014-Nov-11 20:29N 32°41' W 117°10'0 0.0
2014-Nov-10 21:27N 32°41' W 117°09'2 2.2
2014-Nov-10 20:33N 32°43' W 117°11'3 0.9
2014-Nov-10 17:24N 32°43' W 117°14'  
2014-Nov-07 17:03N 32°43' W 117°13'2 4.2
2014-Nov-07 16:32N 32°44' W 117°11'  
Track history (hours):
 
Tides and Currents Weather Stations Pressure Air Temp Water Temp Dewpoint Dewpoint Depression Visibility Wind Speed Wind Dir Waves Ship Positions

Witte Raaf

Last reported at 2014-Nov-14 18:33 UTC. Time now 2014-Nov-29 09:32 UTC.
Position N 32°44' W 117°12'.
Warning: this ship's position is 14 days out of date.

Length 14 m.

Type: Pleasure craft. MMSI: 244383027.

Date/timePositionNaut miles runAvg speedWind from/ knotsBaromVisibWave heightAir tempDewpointWater temp
2014-Nov-14 18:33N 32°44' W 117°12'1 0.1
2014-Nov-14 06:33N 32°44' W 117°11'0 0.0
2014-Nov-14 05:30N 32°44' W 117°11'0 0.0
2014-Nov-14 04:33N 32°44' W 117°11'0 0.0
2014-Nov-14 03:30N 32°44' W 117°11'0 0.0
2014-Nov-14 02:33N 32°44' W 117°11'0 0.0
2014-Nov-14 01:33N 32°44' W 117°11'0 0.0
2014-Nov-14 00:33N 32°44' W 117°11'0 0.0
2014-Nov-13 23:33N 32°44' W 117°11'0 0.1
2014-Nov-13 22:33N 32°44' W 117°11'0 0.0
2014-Nov-13 21:27N 32°44' W 117°11'3 3.2
2014-Nov-13 20:33N 32°41' W 117°09'1 0.0
2014-Nov-12 18:30N 32°41' W 117°10'0 0.0
2014-Nov-12 17:33N 32°41' W 117°10'0 0.0
2014-Nov-12 00:30N 32°41' W 117°10'3 1.0
2014-Nov-11 21:33N 32°44' W 117°11'3 2.7
2014-Nov-11 20:29N 32°41' W 117°10'0 0.0
2014-Nov-10 21:27N 32°41' W 117°09'2 2.2
2014-Nov-10 20:33N 32°43' W 117°11'3 0.9
2014-Nov-10 17:24N 32°43' W 117°14'  
2014-Nov-07 17:03N 32°43' W 117°13'2 4.2
2014-Nov-07 16:32N 32°44' W 117°11'  

Dump ship's entire track history